createdAt,value
2023-03-18T00:00:51.585Z,10.90
2023-03-18T00:03:18.331Z,10.90
2023-03-18T00:05:45.630Z,10.90
2023-03-18T00:08:12.337Z,10.90
2023-03-18T00:10:39.733Z,10.90
2023-03-18T00:13:06.575Z,10.90
2023-03-18T00:15:33.309Z,10.80
2023-03-18T00:18:00.025Z,10.80
2023-03-18T00:20:38.955Z,10.80
2023-03-18T00:23:08.433Z,10.70
2023-03-18T00:25:36.234Z,10.70
2023-03-18T00:28:05.080Z,10.70
2023-03-18T00:30:33.174Z,10.70
2023-03-18T00:33:00.790Z,10.70
2023-03-18T00:35:31.063Z,10.70
2023-03-18T00:38:04.227Z,10.70
2023-03-18T00:40:43.470Z,10.70
2023-03-18T00:43:12.985Z,10.70
2023-03-18T00:45:41.373Z,10.80
2023-03-18T00:48:09.182Z,10.70
2023-03-18T00:50:37.280Z,10.70
2023-03-18T00:53:03.983Z,10.70
2023-03-18T00:55:30.685Z,10.70
2023-03-18T00:57:57.975Z,10.70
2023-03-18T01:00:26.205Z,10.70
2023-03-18T01:02:53.264Z,10.60
2023-03-18T01:05:20.209Z,10.60
2023-03-18T01:07:49.770Z,10.50
2023-03-18T01:10:16.786Z,10.50
2023-03-18T01:12:46.591Z,10.50
2023-03-18T01:15:16.796Z,10.50
2023-03-18T01:17:44.166Z,10.40
2023-03-18T01:20:12.907Z,10.40
2023-03-18T01:22:42.865Z,10.40
2023-03-18T01:25:11.604Z,10.40
2023-03-18T01:27:38.923Z,10.30
2023-03-18T01:30:06.627Z,10.30
2023-03-18T01:32:34.326Z,10.30
2023-03-18T01:35:01.037Z,10.20
2023-03-18T01:37:31.605Z,10.20
2023-03-18T01:39:58.320Z,10.20
2023-03-18T01:42:25.018Z,10.20
2023-03-18T01:45:10.605Z,10.20
2023-03-18T01:47:37.218Z,10.20
2023-03-18T01:50:04.013Z,10.20
2023-03-18T01:52:32.266Z,10.10
2023-03-18T01:55:05.836Z,10.10
2023-03-18T01:57:34.850Z,10.10
2023-03-18T02:00:04.390Z,10.10
2023-03-18T02:02:32.569Z,10.10
2023-03-18T02:05:03.586Z,10.20
2023-03-18T02:07:34.106Z,10.10
2023-03-18T02:10:05.062Z,10.10
2023-03-18T02:12:35.470Z,10.00
2023-03-18T02:15:05.968Z,10.00
2023-03-18T02:17:38.745Z,10.00
2023-03-18T02:20:39.491Z,10.00
2023-03-18T02:23:40.452Z,10.00
2023-03-18T02:26:20.656Z,10.00
2023-03-18T02:28:50.368Z,10.00
2023-03-18T02:31:19.062Z,10.00
2023-03-18T02:33:47.242Z,10.00
2023-03-18T02:36:19.683Z,10.00
2023-03-18T02:38:49.982Z,10.00
2023-03-18T02:41:22.096Z,9.90
2023-03-18T02:43:51.003Z,9.90
2023-03-18T02:46:41.487Z,9.90
2023-03-18T02:49:08.736Z,9.90
2023-03-18T02:51:37.020Z,9.90
2023-03-18T02:54:12.897Z,9.90
2023-03-18T02:56:41.635Z,9.90
2023-03-18T02:59:09.525Z,9.90
2023-03-18T03:01:37.839Z,9.90
2023-03-18T03:04:05.162Z,9.90
2023-03-18T03:06:32.046Z,9.90
2023-03-18T03:09:00.535Z,9.90
2023-03-18T03:11:28.466Z,9.90
2023-03-18T03:13:58.069Z,9.90
2023-03-18T03:16:24.865Z,9.80
2023-03-18T03:18:51.817Z,9.90
2023-03-18T03:21:18.714Z,9.80
2023-03-18T03:23:47.700Z,9.80
2023-03-18T03:26:15.971Z,9.80
2023-03-18T03:28:43.045Z,9.80
2023-03-18T03:31:10.748Z,9.80
2023-03-18T03:33:43.466Z,9.80
2023-03-18T03:36:17.231Z,9.80
2023-03-18T03:38:47.359Z,9.80
2023-03-18T03:41:15.712Z,9.80
2023-03-18T03:43:42.426Z,9.80
2023-03-18T03:46:10.322Z,9.70
2023-03-18T03:48:38.256Z,9.70
2023-03-18T03:51:05.425Z,9.70
2023-03-18T03:53:33.913Z,9.70
2023-03-18T03:56:00.941Z,9.70
2023-03-18T03:58:28.324Z,9.70
2023-03-18T04:00:55.793Z,9.70
2023-03-18T04:03:22.519Z,9.70
2023-03-18T04:05:49.438Z,9.70
2023-03-18T04:08:16.121Z,9.70
2023-03-18T04:10:43.256Z,9.70
2023-03-18T04:13:10.236Z,9.70
2023-03-18T04:15:37.266Z,9.70
2023-03-18T04:18:06.879Z,9.60
2023-03-18T04:20:35.458Z,9.60
2023-03-18T04:23:03.892Z,9.60
2023-03-18T04:25:30.667Z,9.60
2023-03-18T04:27:58.135Z,9.70
2023-03-18T04:30:26.027Z,9.60
2023-03-18T04:32:53.432Z,9.60
2023-03-18T04:35:21.068Z,9.60
2023-03-18T04:37:48.632Z,9.60
2023-03-18T04:40:15.679Z,9.50
2023-03-18T04:42:42.643Z,9.50
2023-03-18T04:45:09.705Z,9.50
2023-03-18T04:47:38.084Z,9.50
2023-03-18T04:50:05.264Z,9.50
2023-03-18T04:52:32.021Z,9.50
2023-03-18T04:54:58.654Z,9.40
2023-03-18T04:57:25.928Z,9.40
2023-03-18T04:59:52.624Z,9.40
2023-03-18T05:02:19.778Z,9.50
2023-03-18T05:04:46.677Z,9.40
2023-03-18T05:07:15.348Z,9.40
2023-03-18T05:09:43.613Z,9.40
2023-03-18T05:12:13.447Z,9.50
2023-03-18T05:14:41.598Z,9.50
2023-03-18T05:17:15.276Z,9.50
2023-03-18T05:19:43.974Z,9.50
2023-03-18T05:22:11.564Z,9.40
2023-03-18T05:24:39.837Z,9.40
2023-03-18T05:27:07.317Z,9.40
2023-03-18T05:29:34.141Z,9.30
2023-03-18T05:32:00.868Z,9.30
2023-03-18T05:34:27.653Z,9.30
2023-03-18T05:36:54.360Z,9.30
2023-03-18T05:39:21.050Z,9.30
2023-03-18T05:41:47.736Z,9.30
2023-03-18T05:44:14.704Z,9.30
2023-03-18T05:46:41.833Z,9.30
2023-03-18T05:49:08.796Z,9.30
2023-03-18T05:51:35.568Z,9.30
2023-03-18T05:54:03.980Z,9.30
2023-03-18T05:56:31.209Z,9.30
2023-03-18T05:58:58.604Z,9.30
2023-03-18T06:01:26.122Z,9.30
2023-03-18T06:03:53.525Z,9.30
2023-03-18T06:06:20.177Z,9.30
2023-03-18T06:08:47.397Z,9.30
2023-03-18T06:11:14.273Z,9.30
2023-03-18T06:13:41.409Z,9.30
2023-03-18T06:16:09.000Z,9.30
2023-03-18T06:18:36.318Z,9.30
2023-03-18T06:21:03.382Z,9.30
2023-03-18T06:23:29.985Z,9.30
2023-03-18T06:25:56.879Z,9.40
2023-03-18T06:28:23.668Z,9.40
2023-03-18T06:30:50.353Z,9.40
2023-03-18T06:33:16.976Z,9.40
2023-03-18T06:35:44.063Z,9.40
2023-03-18T06:38:14.259Z,9.40
2023-03-18T06:40:40.930Z,9.40
2023-03-18T06:43:07.580Z,9.40
2023-03-18T06:45:34.367Z,9.40
2023-03-18T06:48:01.717Z,9.40
2023-03-18T06:50:28.406Z,9.40
2023-03-18T06:52:55.268Z,9.40
2023-03-18T06:55:21.894Z,9.40
2023-03-18T06:57:48.526Z,9.40
2023-03-18T07:00:15.889Z,9.40
2023-03-18T07:02:43.297Z,9.40
2023-03-18T07:05:10.424Z,9.40
2023-03-18T07:07:40.181Z,9.40
2023-03-18T07:10:10.421Z,9.40
2023-03-18T07:12:37.028Z,9.40
2023-03-18T07:15:04.250Z,9.40
2023-03-18T07:17:30.940Z,9.40
2023-03-18T07:19:58.049Z,9.40
2023-03-18T07:22:24.691Z,9.40
2023-03-18T07:24:52.328Z,9.50
2023-03-18T07:27:19.804Z,9.50
2023-03-18T07:29:47.209Z,9.50
2023-03-18T07:32:14.033Z,9.70
2023-03-18T07:34:41.248Z,9.60
2023-03-18T07:37:08.041Z,9.60
2023-03-18T07:39:34.806Z,9.60
2023-03-18T07:42:02.088Z,9.70
2023-03-18T07:44:29.314Z,9.70
2023-03-18T07:46:56.762Z,9.70
2023-03-18T07:49:23.806Z,9.70
2023-03-18T07:51:50.722Z,9.70
2023-03-18T07:54:18.106Z,9.70
2023-03-18T07:56:44.924Z,9.80
2023-03-18T07:59:12.339Z,9.80
2023-03-18T08:01:39.831Z,9.80
2023-03-18T08:04:06.819Z,9.80
2023-03-18T08:06:34.510Z,9.90
2023-03-18T08:09:02.077Z,9.90
2023-03-18T08:11:28.781Z,9.90
2023-03-18T08:13:55.421Z,9.90
2023-03-18T08:16:23.113Z,9.90
2023-03-18T08:18:49.776Z,9.90
2023-03-18T08:21:16.423Z,10.00
2023-03-18T08:23:43.039Z,10.00
2023-03-18T08:26:09.827Z,10.10
2023-03-18T08:28:36.852Z,10.10
2023-03-18T08:31:04.884Z,10.20
2023-03-18T08:33:32.181Z,10.20
2023-03-18T08:35:59.729Z,10.30
2023-03-18T08:38:26.447Z,10.30
2023-03-18T08:40:53.189Z,10.30
2023-03-18T08:43:22.145Z,10.30
2023-03-18T08:45:56.015Z,10.30
2023-03-18T08:48:24.007Z,10.40
2023-03-18T08:50:50.812Z,10.40
2023-03-18T08:53:17.852Z,10.50
2023-03-18T08:55:47.074Z,10.50
2023-03-18T08:58:14.044Z,10.60
2023-03-18T09:00:41.734Z,10.70
2023-03-18T09:03:09.048Z,10.70
2023-03-18T09:05:35.907Z,10.70
2023-03-18T09:08:03.736Z,10.80
2023-03-18T09:10:30.525Z,10.80
2023-03-18T09:12:57.828Z,10.80
2023-03-18T09:15:24.627Z,10.90
2023-03-18T09:18:07.914Z,10.90
2023-03-18T09:20:37.683Z,10.90
2023-03-18T09:23:04.799Z,11.00
2023-03-18T09:25:32.318Z,11.10
2023-03-18T09:28:00.306Z,11.20
2023-03-18T09:30:27.658Z,11.20
2023-03-18T09:32:54.750Z,11.30
2023-03-18T09:35:21.440Z,11.40
2023-03-18T09:37:48.448Z,11.40
2023-03-18T09:40:43.218Z,11.50
2023-03-18T09:43:40.310Z,11.50
2023-03-18T09:46:18.454Z,11.60
2023-03-18T09:49:11.104Z,11.70
2023-03-18T09:51:59.374Z,11.70
2023-03-18T09:54:47.189Z,11.80
2023-03-18T09:57:36.928Z,11.90
2023-03-18T10:00:17.508Z,12.00
2023-03-18T10:03:13.366Z,12.10
2023-03-18T10:05:54.083Z,12.20
2023-03-18T10:09:14.385Z,12.40
2023-03-18T10:11:44.423Z,12.60
2023-03-18T10:14:27.216Z,12.70
2023-03-18T10:17:31.181Z,12.90
2023-03-18T10:19:59.951Z,13.00
2023-03-18T10:23:00.416Z,13.20
2023-03-18T10:25:41.423Z,13.30
2023-03-18T10:28:23.315Z,13.40
2023-03-18T10:31:08.293Z,13.50
2023-03-18T10:33:53.851Z,13.60
2023-03-18T10:36:39.858Z,13.60
2023-03-18T10:39:15.377Z,13.60
2023-03-18T10:41:44.573Z,13.60
2023-03-18T10:44:21.272Z,13.70
2023-03-18T10:46:53.519Z,13.60
2023-03-18T10:49:27.562Z,13.50
2023-03-18T10:52:08.357Z,13.60
2023-03-18T10:54:50.401Z,13.60
2023-03-18T10:57:19.012Z,13.60
2023-03-18T10:59:48.060Z,13.70
2023-03-18T11:02:20.320Z,13.80
2023-03-18T11:04:55.263Z,13.90
2023-03-18T11:07:25.975Z,14.00
2023-03-18T11:09:53.269Z,14.00
2023-03-18T11:12:29.203Z,14.00
2023-03-18T11:14:56.331Z,14.10
2023-03-18T11:17:41.968Z,14.20
2023-03-18T11:20:24.400Z,14.30
2023-03-18T11:22:55.413Z,14.40
2023-03-18T11:25:27.183Z,14.40
2023-03-18T11:28:05.091Z,14.40
2023-03-18T11:30:49.005Z,14.30
2023-03-18T11:33:17.683Z,14.30
2023-03-18T11:35:46.320Z,14.40
2023-03-18T11:38:28.608Z,14.50
2023-03-18T11:41:06.585Z,14.60
2023-03-18T11:43:33.273Z,14.70
2023-03-18T11:46:07.724Z,14.80
2023-03-18T11:48:44.151Z,14.90
2023-03-18T11:51:42.809Z,15.00
2023-03-18T11:54:22.328Z,14.90
2023-03-18T11:57:11.829Z,14.70
2023-03-18T12:00:08.556Z,14.60
2023-03-18T12:02:42.672Z,14.60
2023-03-18T12:05:37.255Z,14.70
2023-03-18T12:08:10.475Z,14.80
2023-03-18T12:10:47.113Z,14.80
2023-03-18T12:13:52.568Z,15.00
2023-03-18T12:16:40.029Z,15.00
2023-03-18T12:19:34.114Z,15.10
2023-03-18T12:22:26.927Z,15.30
2023-03-18T12:25:07.513Z,15.40
2023-03-18T12:28:11.798Z,15.50
2023-03-18T12:30:56.064Z,15.50
2023-03-18T12:33:37.630Z,15.60
2023-03-18T12:36:34.123Z,15.70
2023-03-18T12:39:24.054Z,15.80
2023-03-18T12:42:13.493Z,15.80
2023-03-18T12:45:02.960Z,15.90
2023-03-18T12:47:40.168Z,16.00
2023-03-18T12:50:19.507Z,16.00
2023-03-18T12:53:17.537Z,15.80
2023-03-18T12:55:51.885Z,15.70
2023-03-18T12:58:23.159Z,15.70
2023-03-18T13:00:54.690Z,15.70
2023-03-18T13:03:34.353Z,15.70
2023-03-18T13:06:07.698Z,15.90
2023-03-18T13:08:40.633Z,16.00
2023-03-18T13:11:40.838Z,16.10
2023-03-18T13:14:32.727Z,16.20
2023-03-18T13:17:00.779Z,16.30
2023-03-18T13:19:27.881Z,16.40
2023-03-18T13:22:20.616Z,16.40
2023-03-18T13:25:13.090Z,16.50
2023-03-18T13:27:55.231Z,16.60
2023-03-18T13:30:28.699Z,16.60
2023-03-18T13:33:38.596Z,16.60
2023-03-18T13:36:34.918Z,16.80
2023-03-18T13:39:38.844Z,17.00
2023-03-18T13:42:22.472Z,17.30
2023-03-18T13:45:22.358Z,17.50
2023-03-18T13:48:02.729Z,17.80
2023-03-18T13:50:50.486Z,18.00
2023-03-18T13:53:41.384Z,18.20
2023-03-18T13:56:26.077Z,18.30
2023-03-18T13:58:54.003Z,18.40
2023-03-18T14:01:29.644Z,18.20
2023-03-18T14:04:01.164Z,18.10
2023-03-18T14:06:36.868Z,18.20
2023-03-18T14:09:35.265Z,18.10
2023-03-18T14:12:42.675Z,18.00
2023-03-18T14:15:09.429Z,17.80
2023-03-18T14:17:38.873Z,17.80
2023-03-18T14:20:19.128Z,17.70
2023-03-18T14:22:51.470Z,17.80
2023-03-18T14:25:18.081Z,17.80
2023-03-18T14:27:48.471Z,18.00
2023-03-18T14:30:31.678Z,18.10
2023-03-18T14:33:18.610Z,18.20
2023-03-18T14:36:10.330Z,18.40
2023-03-18T14:39:06.989Z,18.50
2023-03-18T14:41:39.685Z,18.50
2023-03-18T14:44:21.078Z,18.50
2023-03-18T14:46:55.910Z,18.50
2023-03-18T14:49:45.960Z,18.50
2023-03-18T14:52:33.257Z,18.30
2023-03-18T14:55:07.391Z,18.20
2023-03-18T14:57:34.105Z,18.20
2023-03-18T15:00:01.668Z,18.30
2023-03-18T15:02:34.241Z,18.30
2023-03-18T15:05:01.913Z,18.20
2023-03-18T15:07:41.357Z,18.20
2023-03-18T15:10:17.083Z,18.20
2023-03-18T15:12:43.954Z,18.10
2023-03-18T15:15:16.259Z,18.10
2023-03-18T15:17:49.118Z,18.10
2023-03-18T15:20:16.355Z,18.30
2023-03-18T15:22:43.480Z,18.70
2023-03-18T15:25:20.477Z,19.10
2023-03-18T15:27:48.277Z,19.40
2023-03-18T15:30:27.274Z,19.60
2023-03-18T15:33:19.723Z,19.70
2023-03-18T15:36:00.909Z,19.80
2023-03-18T15:38:30.203Z,20.00
2023-03-18T15:41:09.469Z,19.90
2023-03-18T15:43:40.400Z,19.70
2023-03-18T15:46:28.166Z,19.50
2023-03-18T15:48:56.586Z,19.30
2023-03-18T15:51:42.223Z,19.20
2023-03-18T15:54:29.822Z,19.20
2023-03-18T15:56:59.121Z,19.10
2023-03-18T15:59:31.201Z,19.10
2023-03-18T16:01:59.381Z,19.20
2023-03-18T16:04:30.542Z,19.30
2023-03-18T16:06:57.644Z,19.40
2023-03-18T16:09:26.280Z,19.30
2023-03-18T16:11:58.345Z,19.30
2023-03-18T16:14:37.469Z,19.30
2023-03-18T16:17:04.164Z,19.20
2023-03-18T16:19:30.961Z,19.00
2023-03-18T16:21:58.982Z,18.80
2023-03-18T16:24:29.324Z,18.70
2023-03-18T16:26:57.046Z,18.50
2023-03-18T16:29:36.877Z,18.30
2023-03-18T16:32:04.523Z,18.00
2023-03-18T16:34:34.096Z,17.80
2023-03-18T16:37:00.848Z,17.70
2023-03-18T16:39:34.143Z,17.60
2023-03-18T16:42:03.078Z,17.60
2023-03-18T16:44:37.999Z,17.60
2023-03-18T16:47:04.924Z,17.60
2023-03-18T16:49:34.230Z,17.60
2023-03-18T16:52:03.845Z,17.60
2023-03-18T16:54:32.945Z,17.60
2023-03-18T16:57:02.731Z,17.50
2023-03-18T16:59:33.595Z,17.50
2023-03-18T17:02:00.688Z,17.50
2023-03-18T17:04:34.822Z,17.50
2023-03-18T17:07:04.533Z,17.40
2023-03-18T17:09:31.993Z,17.20
2023-03-18T17:12:03.804Z,16.90
2023-03-18T17:14:43.381Z,16.80
2023-03-18T17:17:33.822Z,16.70
2023-03-18T17:20:00.458Z,16.60
2023-03-18T17:22:29.480Z,16.60
2023-03-18T17:24:56.322Z,16.60
2023-03-18T17:27:30.002Z,16.60
2023-03-18T17:29:56.672Z,16.60
2023-03-18T17:32:23.333Z,16.70
2023-03-18T17:34:51.656Z,16.70
2023-03-18T17:37:19.714Z,16.70
2023-03-18T17:39:46.777Z,16.70
2023-03-18T17:42:40.214Z,16.70
2023-03-18T17:45:28.416Z,16.80
2023-03-18T17:48:12.825Z,16.80
2023-03-18T17:50:40.093Z,16.80
2023-03-18T17:53:09.624Z,16.90
2023-03-18T17:55:36.654Z,16.80
2023-03-18T17:58:11.988Z,16.80
2023-03-18T18:00:38.824Z,16.80
2023-03-18T18:03:16.863Z,16.70
2023-03-18T18:05:43.515Z,16.60
2023-03-18T18:08:15.523Z,16.60
2023-03-18T18:10:42.125Z,16.50
2023-03-18T18:13:18.062Z,16.50
2023-03-18T18:15:46.646Z,16.50
2023-03-18T18:18:29.001Z,16.50
2023-03-18T18:21:01.051Z,16.50
2023-03-18T18:23:33.888Z,16.50
2023-03-18T18:26:07.398Z,16.40
2023-03-18T18:28:36.678Z,16.40
2023-03-18T18:31:05.898Z,16.50
2023-03-18T18:33:33.472Z,16.50
2023-03-18T18:36:01.081Z,16.40
2023-03-18T18:38:28.518Z,16.40
2023-03-18T18:40:56.307Z,16.30
2023-03-18T18:43:24.666Z,16.10
2023-03-18T18:45:52.788Z,15.90
2023-03-18T18:48:28.372Z,15.80
2023-03-18T18:50:55.161Z,15.70
2023-03-18T18:53:27.431Z,15.60
2023-03-18T18:55:57.351Z,15.40
2023-03-18T18:58:29.331Z,15.40
2023-03-18T19:00:56.498Z,15.30
2023-03-18T19:03:25.716Z,15.30
2023-03-18T19:05:54.701Z,15.20
2023-03-18T19:08:34.295Z,15.20
2023-03-18T19:11:04.917Z,15.20
2023-03-18T19:13:33.337Z,15.10
2023-03-18T19:16:07.170Z,15.10
2023-03-18T19:18:39.220Z,15.00
2023-03-18T19:21:06.898Z,14.90
2023-03-18T19:23:35.637Z,14.90
2023-03-18T19:26:04.146Z,14.80
2023-03-18T19:28:57.646Z,14.80
2023-03-18T19:31:27.159Z,14.80
2023-03-18T19:33:54.249Z,14.80
2023-03-18T19:36:41.862Z,14.80
2023-03-18T19:39:17.057Z,14.80
2023-03-18T19:41:44.932Z,14.70
2023-03-18T19:44:24.131Z,14.70
2023-03-18T19:46:53.759Z,14.70
2023-03-18T19:49:26.969Z,14.70
2023-03-18T19:51:54.502Z,14.80
2023-03-18T19:54:34.061Z,14.80
2023-03-18T19:57:19.374Z,14.80
2023-03-18T19:59:48.526Z,14.80
2023-03-18T20:02:27.147Z,14.90
2023-03-18T20:04:59.449Z,14.90
2023-03-18T20:07:32.513Z,14.90
2023-03-18T20:09:59.279Z,15.00
2023-03-18T20:12:32.601Z,15.00
2023-03-18T20:14:59.246Z,15.00
2023-03-18T20:17:35.802Z,14.90
2023-03-18T20:20:02.777Z,15.00
2023-03-18T20:22:33.574Z,15.00
2023-03-18T20:25:02.122Z,15.00
2023-03-18T20:27:30.048Z,15.00
2023-03-18T20:29:57.192Z,14.90
2023-03-18T20:32:23.914Z,14.90
2023-03-18T20:34:51.301Z,14.90
2023-03-18T20:37:37.079Z,14.90
2023-03-18T20:40:05.379Z,14.90
2023-03-18T20:42:32.490Z,14.80
2023-03-18T20:44:59.123Z,14.80
2023-03-18T20:47:25.766Z,14.80
2023-03-18T20:49:53.814Z,14.80
2023-03-18T20:52:29.681Z,14.80
2023-03-18T20:54:58.472Z,14.80
2023-03-18T20:57:26.094Z,14.70
2023-03-18T20:59:52.878Z,14.70
2023-03-18T21:02:31.711Z,14.60
2023-03-18T21:05:00.284Z,14.60
2023-03-18T21:07:27.639Z,14.50
2023-03-18T21:09:54.517Z,14.50
2023-03-18T21:12:22.174Z,14.50
2023-03-18T21:14:49.602Z,14.40
2023-03-18T21:17:27.545Z,14.40
2023-03-18T21:20:11.032Z,14.40
2023-03-18T21:22:46.952Z,14.40
2023-03-18T21:25:19.114Z,14.40
2023-03-18T21:27:46.129Z,14.40
2023-03-18T21:30:14.521Z,14.40
2023-03-18T21:32:44.840Z,14.30
2023-03-18T21:35:19.399Z,14.30
2023-03-18T21:37:46.307Z,14.30
2023-03-18T21:40:19.165Z,14.20
2023-03-18T21:42:46.497Z,14.20
2023-03-18T21:45:16.350Z,14.20
2023-03-18T21:47:43.174Z,14.20
2023-03-18T21:50:30.502Z,14.20
2023-03-18T21:52:59.139Z,14.20
2023-03-18T21:55:25.818Z,14.20
2023-03-18T21:57:52.567Z,14.20
2023-03-18T22:00:20.435Z,14.20
2023-03-18T22:02:48.114Z,14.20
2023-03-18T22:05:23.593Z,14.10
2023-03-18T22:07:51.599Z,14.10
2023-03-18T22:10:22.883Z,14.10
2023-03-18T22:12:50.116Z,14.10
2023-03-18T22:15:33.622Z,14.10
2023-03-18T22:18:00.865Z,14.00
2023-03-18T22:20:28.298Z,14.00
2023-03-18T22:22:55.071Z,13.90
2023-03-18T22:25:34.045Z,13.90
2023-03-18T22:28:00.990Z,13.80
2023-03-18T22:30:30.021Z,13.80
2023-03-18T22:32:58.201Z,13.80
2023-03-18T22:35:27.772Z,13.90
2023-03-18T22:37:54.671Z,13.90
2023-03-18T22:40:29.610Z,13.90
2023-03-18T22:42:58.905Z,13.90
2023-03-18T22:45:31.745Z,14.00
2023-03-18T22:48:04.150Z,14.00
2023-03-18T22:50:34.156Z,14.00
2023-03-18T22:53:03.917Z,14.00
2023-03-18T22:55:38.795Z,14.00
2023-03-18T22:58:05.845Z,14.00
2023-03-18T23:00:43.786Z,14.00
2023-03-18T23:03:19.809Z,14.00
2023-03-18T23:05:48.133Z,14.00
2023-03-18T23:08:15.114Z,14.00
2023-03-18T23:10:43.754Z,14.00
2023-03-18T23:13:37.987Z,14.00
2023-03-18T23:16:06.760Z,14.00
2023-03-18T23:18:34.965Z,14.00
2023-03-18T23:21:01.707Z,14.00
2023-03-18T23:23:30.264Z,13.90
2023-03-18T23:25:57.433Z,13.90
2023-03-18T23:28:24.131Z,13.90
2023-03-18T23:30:52.756Z,13.90
2023-03-18T23:33:20.021Z,13.80
2023-03-18T23:35:48.107Z,13.80
2023-03-18T23:38:15.421Z,13.80
2023-03-18T23:40:42.063Z,13.70
2023-03-18T23:43:09.118Z,13.70
2023-03-18T23:45:37.724Z,13.70
2023-03-18T23:48:05.464Z,13.70
2023-03-18T23:50:32.427Z,13.60
2023-03-18T23:52:59.976Z,13.60
2023-03-18T23:55:34.406Z,13.60
2023-03-18T23:58:01.866Z,13.60
